sensor_id;sensor_type;location;lat;lon;timestamp;P1;durP1;ratioP1;P2;durP2;ratioP2
65581;SDS011;52231;40.090;18.348;2023-04-24T00:00:34;16.65;;;9.18;;
65581;SDS011;52231;40.090;18.348;2023-04-24T00:03:03;17.73;;;9.27;;
65581;SDS011;52231;40.090;18.348;2023-04-24T00:08:00;17.77;;;9.13;;
65581;SDS011;52231;40.090;18.348;2023-04-24T00:10:28;18.85;;;8.98;;
65581;SDS011;52231;40.090;18.348;2023-04-24T00:12:58;18.42;;;9.68;;
65581;SDS011;52231;40.090;18.348;2023-04-24T00:15:26;18.27;;;9.73;;
65581;SDS011;52231;40.090;18.348;2023-04-24T00:17:54;18.92;;;10.60;;
65581;SDS011;52231;40.090;18.348;2023-04-24T00:20:22;18.65;;;9.43;;
65581;SDS011;52231;40.090;18.348;2023-04-24T00:22:50;18.50;;;11.20;;
65581;SDS011;52231;40.090;18.348;2023-04-24T00:25:18;19.88;;;10.68;;
65581;SDS011;52231;40.090;18.348;2023-04-24T00:27:46;19.40;;;10.15;;
65581;SDS011;52231;40.090;18.348;2023-04-24T00:30:15;19.45;;;11.02;;
65581;SDS011;52231;40.090;18.348;2023-04-24T00:32:46;20.52;;;11.57;;
65581;SDS011;52231;40.090;18.348;2023-04-24T00:35:14;19.77;;;10.48;;
65581;SDS011;52231;40.090;18.348;2023-04-24T00:37:42;19.25;;;10.77;;
65581;SDS011;52231;40.090;18.348;2023-04-24T00:40:10;20.92;;;11.15;;
65581;SDS011;52231;40.090;18.348;2023-04-24T00:42:39;20.85;;;11.32;;
65581;SDS011;52231;40.090;18.348;2023-04-24T00:45:08;21.10;;;10.88;;
65581;SDS011;52231;40.090;18.348;2023-04-24T00:47:36;20.95;;;11.13;;
65581;SDS011;52231;40.090;18.348;2023-04-24T00:50:06;21.95;;;11.07;;
65581;SDS011;52231;40.090;18.348;2023-04-24T00:52:35;20.45;;;10.93;;
65581;SDS011;52231;40.090;18.348;2023-04-24T00:55:03;18.80;;;9.63;;
65581;SDS011;52231;40.090;18.348;2023-04-24T00:57:33;21.00;;;10.95;;
65581;SDS011;52231;40.090;18.348;2023-04-24T01:00:01;20.05;;;11.23;;
65581;SDS011;52231;40.090;18.348;2023-04-24T01:02:30;20.05;;;10.65;;
65581;SDS011;52231;40.090;18.348;2023-04-24T01:05:01;22.63;;;12.18;;
65581;SDS011;52231;40.090;18.348;2023-04-24T01:07:30;20.15;;;10.80;;
65581;SDS011;52231;40.090;18.348;2023-04-24T01:10:00;20.83;;;10.82;;
65581;SDS011;52231;40.090;18.348;2023-04-24T01:12:29;20.90;;;10.07;;
65581;SDS011;52231;40.090;18.348;2023-04-24T01:14:58;21.13;;;10.57;;
65581;SDS011;52231;40.090;18.348;2023-04-24T01:19:54;19.75;;;10.60;;
65581;SDS011;52231;40.090;18.348;2023-04-24T01:22:24;24.08;;;10.73;;
65581;SDS011;52231;40.090;18.348;2023-04-24T01:24:52;18.15;;;10.23;;
65581;SDS011;52231;40.090;18.348;2023-04-24T01:27:21;23.83;;;11.27;;
65581;SDS011;52231;40.090;18.348;2023-04-24T01:29:49;19.63;;;9.43;;
65581;SDS011;52231;40.090;18.348;2023-04-24T01:32:19;16.95;;;9.27;;
65581;SDS011;52231;40.090;18.348;2023-04-24T01:34:48;20.23;;;10.30;;
65581;SDS011;52231;40.090;18.348;2023-04-24T01:37:16;21.67;;;10.13;;
65581;SDS011;52231;40.090;18.348;2023-04-24T01:39:44;22.52;;;10.00;;
65581;SDS011;52231;40.090;18.348;2023-04-24T01:42:13;17.42;;;9.77;;
65581;SDS011;52231;40.090;18.348;2023-04-24T01:44:42;19.50;;;9.60;;
65581;SDS011;52231;40.090;18.348;2023-04-24T01:47:11;22.98;;;10.85;;
65581;SDS011;52231;40.090;18.348;2023-04-24T01:49:39;19.38;;;9.38;;
65581;SDS011;52231;40.090;18.348;2023-04-24T01:52:08;21.25;;;9.88;;
65581;SDS011;52231;40.090;18.348;2023-04-24T01:54:36;17.33;;;9.43;;
65581;SDS011;52231;40.090;18.348;2023-04-24T01:57:04;19.13;;;9.23;;
65581;SDS011;52231;40.090;18.348;2023-04-24T01:59:33;16.15;;;9.27;;
65581;SDS011;52231;40.090;18.348;2023-04-24T02:02:03;17.55;;;9.30;;
65581;SDS011;52231;40.090;18.348;2023-04-24T02:04:32;22.50;;;10.07;;
65581;SDS011;52231;40.090;18.348;2023-04-24T02:07:00;17.75;;;8.95;;
65581;SDS011;52231;40.090;18.348;2023-04-24T02:09:28;20.50;;;9.55;;
65581;SDS011;52231;40.090;18.348;2023-04-24T02:11:56;17.95;;;10.25;;
65581;SDS011;52231;40.090;18.348;2023-04-24T02:16:53;18.65;;;9.18;;
65581;SDS011;52231;40.090;18.348;2023-04-24T02:19:21;22.30;;;9.30;;
65581;SDS011;52231;40.090;18.348;2023-04-24T02:21:50;17.58;;;8.82;;
65581;SDS011;52231;40.090;18.348;2023-04-24T02:24:18;18.83;;;9.68;;
65581;SDS011;52231;40.090;18.348;2023-04-24T02:26:46;19.92;;;9.63;;
65581;SDS011;52231;40.090;18.348;2023-04-24T02:29:14;18.48;;;8.75;;
65581;SDS011;52231;40.090;18.348;2023-04-24T02:31:43;18.95;;;8.68;;
65581;SDS011;52231;40.090;18.348;2023-04-24T02:34:14;19.17;;;8.85;;
65581;SDS011;52231;40.090;18.348;2023-04-24T02:36:42;24.05;;;8.88;;
65581;SDS011;52231;40.090;18.348;2023-04-24T02:39:10;16.13;;;8.65;;
65581;SDS011;52231;40.090;18.348;2023-04-24T02:41:39;15.93;;;8.73;;
65581;SDS011;52231;40.090;18.348;2023-04-24T02:44:08;20.98;;;8.35;;
65581;SDS011;52231;40.090;18.348;2023-04-24T02:46:37;17.42;;;8.73;;
65581;SDS011;52231;40.090;18.348;2023-04-24T02:49:05;19.17;;;8.68;;
65581;SDS011;52231;40.090;18.348;2023-04-24T02:51:33;16.60;;;8.38;;
65581;SDS011;52231;40.090;18.348;2023-04-24T02:54:01;16.83;;;8.35;;
65581;SDS011;52231;40.090;18.348;2023-04-24T02:56:30;19.65;;;8.50;;
65581;SDS011;52231;40.090;18.348;2023-04-24T02:59:00;19.73;;;8.40;;
65581;SDS011;52231;40.090;18.348;2023-04-24T03:01:28;16.08;;;8.25;;
65581;SDS011;52231;40.090;18.348;2023-04-24T03:03:56;15.70;;;8.77;;
65581;SDS011;52231;40.090;18.348;2023-04-24T03:06:25;20.50;;;8.52;;
65581;SDS011;52231;40.090;18.348;2023-04-24T03:08:54;16.00;;;8.02;;
65581;SDS011;52231;40.090;18.348;2023-04-24T03:11:22;18.88;;;8.57;;
65581;SDS011;52231;40.090;18.348;2023-04-24T03:13:50;19.52;;;9.55;;
65581;SDS011;52231;40.090;18.348;2023-04-24T03:16:20;16.38;;;8.40;;
65581;SDS011;52231;40.090;18.348;2023-04-24T03:18:49;22.85;;;9.63;;
65581;SDS011;52231;40.090;18.348;2023-04-24T03:21:18;19.98;;;8.80;;
65581;SDS011;52231;40.090;18.348;2023-04-24T03:23:46;21.63;;;9.23;;
65581;SDS011;52231;40.090;18.348;2023-04-24T03:26:15;20.63;;;9.40;;
65581;SDS011;52231;40.090;18.348;2023-04-24T03:28:55;16.38;;;8.60;;
65581;SDS011;52231;40.090;18.348;2023-04-24T03:31:25;23.75;;;9.65;;
65581;SDS011;52231;40.090;18.348;2023-04-24T03:33:54;17.25;;;8.35;;
65581;SDS011;52231;40.090;18.348;2023-04-24T03:36:22;21.33;;;10.00;;
65581;SDS011;52231;40.090;18.348;2023-04-24T03:38:51;18.05;;;8.85;;
65581;SDS011;52231;40.090;18.348;2023-04-24T03:41:33;19.30;;;9.00;;
65581;SDS011;52231;40.090;18.348;2023-04-24T03:44:11;20.63;;;9.77;;
65581;SDS011;52231;40.090;18.348;2023-04-24T03:46:40;19.95;;;9.90;;
65581;SDS011;52231;40.090;18.348;2023-04-24T03:49:09;23.02;;;8.95;;
65581;SDS011;52231;40.090;18.348;2023-04-24T03:51:42;24.83;;;9.32;;
65581;SDS011;52231;40.090;18.348;2023-04-24T03:54:17;20.65;;;9.43;;
65581;SDS011;52231;40.090;18.348;2023-04-24T03:56:46;17.60;;;9.88;;
65581;SDS011;52231;40.090;18.348;2023-04-24T03:59:17;17.77;;;8.45;;
65581;SDS011;52231;40.090;18.348;2023-04-24T04:01:52;19.45;;;9.55;;
65581;SDS011;52231;40.090;18.348;2023-04-24T04:04:20;20.40;;;9.30;;
65581;SDS011;52231;40.090;18.348;2023-04-24T04:06:50;18.75;;;9.63;;
65581;SDS011;52231;40.090;18.348;2023-04-24T04:09:18;22.42;;;9.18;;
65581;SDS011;52231;40.090;18.348;2023-04-24T04:11:48;21.63;;;9.68;;
65581;SDS011;52231;40.090;18.348;2023-04-24T04:14:16;25.17;;;9.68;;
65581;SDS011;52231;40.090;18.348;2023-04-24T04:16:47;20.98;;;9.20;;
65581;SDS011;52231;40.090;18.348;2023-04-24T04:19:18;18.73;;;10.38;;
65581;SDS011;52231;40.090;18.348;2023-04-24T04:21:46;22.30;;;9.73;;
65581;SDS011;52231;40.090;18.348;2023-04-24T04:24:27;24.02;;;10.13;;
65581;SDS011;52231;40.090;18.348;2023-04-24T04:26:58;17.17;;;9.48;;
65581;SDS011;52231;40.090;18.348;2023-04-24T04:29:35;21.50;;;10.07;;
65581;SDS011;52231;40.090;18.348;2023-04-24T04:32:07;21.58;;;10.40;;
65581;SDS011;52231;40.090;18.348;2023-04-24T04:34:35;20.52;;;8.68;;
65581;SDS011;52231;40.090;18.348;2023-04-24T04:37:06;20.45;;;8.95;;
65581;SDS011;52231;40.090;18.348;2023-04-24T04:39:55;19.33;;;9.52;;
65581;SDS011;52231;40.090;18.348;2023-04-24T04:42:27;23.55;;;9.05;;
65581;SDS011;52231;40.090;18.348;2023-04-24T04:45:00;22.27;;;9.00;;
65581;SDS011;52231;40.090;18.348;2023-04-24T04:47:40;19.40;;;9.65;;
65581;SDS011;52231;40.090;18.348;2023-04-24T04:50:10;19.27;;;7.97;;
65581;SDS011;52231;40.090;18.348;2023-04-24T04:52:38;21.83;;;8.70;;
65581;SDS011;52231;40.090;18.348;2023-04-24T04:55:18;17.38;;;8.82;;
65581;SDS011;52231;40.090;18.348;2023-04-24T04:58:11;16.00;;;7.10;;
65581;SDS011;52231;40.090;18.348;2023-04-24T05:00:39;16.85;;;7.53;;
65581;SDS011;52231;40.090;18.348;2023-04-24T05:03:31;20.45;;;7.38;;
65581;SDS011;52231;40.090;18.348;2023-04-24T05:06:03;15.07;;;6.22;;
65581;SDS011;52231;40.090;18.348;2023-04-24T05:08:35;18.05;;;7.25;;
65581;SDS011;52231;40.090;18.348;2023-04-24T05:11:06;13.82;;;7.00;;
65581;SDS011;52231;40.090;18.348;2023-04-24T05:13:36;17.58;;;6.55;;
65581;SDS011;52231;40.090;18.348;2023-04-24T05:16:14;15.80;;;7.15;;
65581;SDS011;52231;40.090;18.348;2023-04-24T05:18:42;17.70;;;7.40;;
65581;SDS011;52231;40.090;18.348;2023-04-24T05:21:15;16.92;;;7.30;;
65581;SDS011;52231;40.090;18.348;2023-04-24T05:23:47;18.65;;;6.95;;
65581;SDS011;52231;40.090;18.348;2023-04-24T05:26:23;19.25;;;7.25;;
65581;SDS011;52231;40.090;18.348;2023-04-24T05:31:20;17.77;;;7.03;;
65581;SDS011;52231;40.090;18.348;2023-04-24T05:33:49;17.67;;;7.28;;
65581;SDS011;52231;40.090;18.348;2023-04-24T05:38:46;15.45;;;6.13;;
65581;SDS011;52231;40.090;18.348;2023-04-24T05:41:14;17.17;;;5.95;;
65581;SDS011;52231;40.090;18.348;2023-04-24T05:43:42;18.15;;;6.40;;
65581;SDS011;52231;40.090;18.348;2023-04-24T05:46:11;16.00;;;5.85;;
65581;SDS011;52231;40.090;18.348;2023-04-24T05:48:39;16.73;;;6.05;;
65581;SDS011;52231;40.090;18.348;2023-04-24T05:53:37;16.42;;;5.03;;
65581;SDS011;52231;40.090;18.348;2023-04-24T05:56:05;15.27;;;6.82;;
65581;SDS011;52231;40.090;18.348;2023-04-24T05:58:34;14.90;;;5.40;;
65581;SDS011;52231;40.090;18.348;2023-04-24T06:01:03;15.05;;;5.32;;
65581;SDS011;52231;40.090;18.348;2023-04-24T06:03:33;15.02;;;5.28;;
65581;SDS011;52231;40.090;18.348;2023-04-24T06:06:03;13.73;;;4.97;;
65581;SDS011;52231;40.090;18.348;2023-04-24T06:08:32;15.05;;;5.07;;
65581;SDS011;52231;40.090;18.348;2023-04-24T06:11:01;11.90;;;5.05;;
65581;SDS011;52231;40.090;18.348;2023-04-24T06:13:30;19.00;;;7.68;;
65581;SDS011;52231;40.090;18.348;2023-04-24T06:16:19;12.10;;;4.57;;
65581;SDS011;52231;40.090;18.348;2023-04-24T06:18:55;12.38;;;5.00;;
65581;SDS011;52231;40.090;18.348;2023-04-24T06:23:52;11.50;;;5.20;;
65581;SDS011;52231;40.090;18.348;2023-04-24T06:26:20;14.88;;;4.88;;
65581;SDS011;52231;40.090;18.348;2023-04-24T06:28:48;14.35;;;4.57;;
65581;SDS011;52231;40.090;18.348;2023-04-24T06:31:19;13.63;;;4.18;;
65581;SDS011;52231;40.090;18.348;2023-04-24T06:33:48;10.05;;;4.15;;
65581;SDS011;52231;40.090;18.348;2023-04-24T06:36:17;11.32;;;4.28;;
65581;SDS011;52231;40.090;18.348;2023-04-24T06:38:45;10.98;;;4.45;;
65581;SDS011;52231;40.090;18.348;2023-04-24T06:41:13;13.95;;;5.10;;
65581;SDS011;52231;40.090;18.348;2023-04-24T06:43:41;13.27;;;4.25;;
65581;SDS011;52231;40.090;18.348;2023-04-24T06:46:09;14.45;;;3.80;;
65581;SDS011;52231;40.090;18.348;2023-04-24T06:51:06;13.02;;;4.60;;
65581;SDS011;52231;40.090;18.348;2023-04-24T06:56:02;10.32;;;3.80;;
65581;SDS011;52231;40.090;18.348;2023-04-24T06:58:31;9.57;;;3.70;;
65581;SDS011;52231;40.090;18.348;2023-04-24T07:01:00;11.82;;;4.03;;
65581;SDS011;52231;40.090;18.348;2023-04-24T07:03:28;12.73;;;4.00;;
65581;SDS011;52231;40.090;18.348;2023-04-24T07:05:57;12.40;;;4.90;;
65581;SDS011;52231;40.090;18.348;2023-04-24T07:08:25;13.80;;;3.95;;
65581;SDS011;52231;40.090;18.348;2023-04-24T07:10:53;12.77;;;3.90;;
65581;SDS011;52231;40.090;18.348;2023-04-24T07:13:22;10.13;;;3.90;;
65581;SDS011;52231;40.090;18.348;2023-04-24T07:15:51;16.73;;;4.10;;
65581;SDS011;52231;40.090;18.348;2023-04-24T07:18:21;15.70;;;3.75;;
65581;SDS011;52231;40.090;18.348;2023-04-24T07:20:49;13.18;;;4.05;;
65581;SDS011;52231;40.090;18.348;2023-04-24T07:23:19;8.43;;;3.40;;
65581;SDS011;52231;40.090;18.348;2023-04-24T07:25:47;11.68;;;3.70;;
65581;SDS011;52231;40.090;18.348;2023-04-24T07:30:45;7.72;;;3.30;;
65581;SDS011;52231;40.090;18.348;2023-04-24T07:35:41;11.98;;;3.78;;
65581;SDS011;52231;40.090;18.348;2023-04-24T07:38:09;11.05;;;3.97;;
65581;SDS011;52231;40.090;18.348;2023-04-24T07:43:05;11.10;;;4.15;;
65581;SDS011;52231;40.090;18.348;2023-04-24T07:45:34;11.45;;;4.18;;
65581;SDS011;52231;40.090;18.348;2023-04-24T07:48:04;10.10;;;3.65;;
65581;SDS011;52231;40.090;18.348;2023-04-24T07:50:33;14.27;;;4.13;;
65581;SDS011;52231;40.090;18.348;2023-04-24T07:53:02;12.57;;;3.53;;
65581;SDS011;52231;40.090;18.348;2023-04-24T07:55:30;13.88;;;3.63;;
65581;SDS011;52231;40.090;18.348;2023-04-24T08:00:30;10.60;;;3.72;;
65581;SDS011;52231;40.090;18.348;2023-04-24T08:05:27;12.43;;;3.90;;
65581;SDS011;52231;40.090;18.348;2023-04-24T08:07:56;12.90;;;3.85;;
65581;SDS011;52231;40.090;18.348;2023-04-24T08:10:24;9.90;;;4.50;;
65581;SDS011;52231;40.090;18.348;2023-04-24T08:12:53;12.52;;;4.70;;
65581;SDS011;52231;40.090;18.348;2023-04-24T08:15:22;11.40;;;4.15;;
65581;SDS011;52231;40.090;18.348;2023-04-24T08:17:50;12.65;;;3.97;;
65581;SDS011;52231;40.090;18.348;2023-04-24T08:20:19;13.05;;;4.70;;
65581;SDS011;52231;40.090;18.348;2023-04-24T08:25:16;9.20;;;3.90;;
65581;SDS011;52231;40.090;18.348;2023-04-24T08:27:45;11.68;;;3.55;;
65581;SDS011;52231;40.090;18.348;2023-04-24T08:30:14;11.30;;;4.38;;
65581;SDS011;52231;40.090;18.348;2023-04-24T08:35:10;8.38;;;3.50;;
65581;SDS011;52231;40.090;18.348;2023-04-24T08:37:38;11.95;;;3.65;;
65581;SDS011;52231;40.090;18.348;2023-04-24T08:40:10;11.95;;;3.78;;
65581;SDS011;52231;40.090;18.348;2023-04-24T08:42:42;12.68;;;4.18;;
65581;SDS011;52231;40.090;18.348;2023-04-24T08:45:12;12.90;;;4.10;;
65581;SDS011;52231;40.090;18.348;2023-04-24T08:47:41;12.77;;;4.13;;
65581;SDS011;52231;40.090;18.348;2023-04-24T08:50:09;9.50;;;4.10;;
65581;SDS011;52231;40.090;18.348;2023-04-24T08:52:38;11.70;;;4.25;;
65581;SDS011;52231;40.090;18.348;2023-04-24T08:55:06;11.98;;;4.13;;
65581;SDS011;52231;40.090;18.348;2023-04-24T08:57:36;15.27;;;4.25;;
65581;SDS011;52231;40.090;18.348;2023-04-24T09:00:07;12.93;;;3.95;;
65581;SDS011;52231;40.090;18.348;2023-04-24T09:02:43;10.82;;;4.07;;
65581;SDS011;52231;40.090;18.348;2023-04-24T09:05:15;10.88;;;4.20;;
65581;SDS011;52231;40.090;18.348;2023-04-24T09:07:46;10.18;;;4.45;;
65581;SDS011;52231;40.090;18.348;2023-04-24T09:10:21;12.07;;;4.22;;
65581;SDS011;52231;40.090;18.348;2023-04-24T09:12:51;13.73;;;4.40;;
65581;SDS011;52231;40.090;18.348;2023-04-24T09:17:47;10.35;;;4.00;;
65581;SDS011;52231;40.090;18.348;2023-04-24T09:22:43;12.77;;;4.65;;
65581;SDS011;52231;40.090;18.348;2023-04-24T09:25:12;13.60;;;4.28;;
65581;SDS011;52231;40.090;18.348;2023-04-24T09:27:43;11.32;;;4.35;;
65581;SDS011;52231;40.090;18.348;2023-04-24T09:30:13;13.60;;;4.50;;
65581;SDS011;52231;40.090;18.348;2023-04-24T09:32:42;10.02;;;4.05;;
65581;SDS011;52231;40.090;18.348;2023-04-24T09:37:45;11.35;;;3.85;;
65581;SDS011;52231;40.090;18.348;2023-04-24T09:40:20;10.23;;;4.65;;
65581;SDS011;52231;40.090;18.348;2023-04-24T09:42:53;11.73;;;4.40;;
65581;SDS011;52231;40.090;18.348;2023-04-24T09:45:28;15.52;;;4.90;;
65581;SDS011;52231;40.090;18.348;2023-04-24T09:48:03;13.10;;;4.90;;
65581;SDS011;52231;40.090;18.348;2023-04-24T09:50:34;13.07;;;4.68;;
65581;SDS011;52231;40.090;18.348;2023-04-24T09:53:02;12.68;;;4.97;;
65581;SDS011;52231;40.090;18.348;2023-04-24T09:55:32;12.38;;;5.30;;
65581;SDS011;52231;40.090;18.348;2023-04-24T09:58:01;14.60;;;4.88;;
65581;SDS011;52231;40.090;18.348;2023-04-24T10:00:32;16.02;;;5.25;;
65581;SDS011;52231;40.090;18.348;2023-04-24T10:03:02;12.13;;;4.45;;
65581;SDS011;52231;40.090;18.348;2023-04-24T10:05:35;10.55;;;4.22;;
65581;SDS011;52231;40.090;18.348;2023-04-24T10:08:07;11.85;;;3.83;;
65581;SDS011;52231;40.090;18.348;2023-04-24T10:10:41;9.20;;;3.38;;
65581;SDS011;52231;40.090;18.348;2023-04-24T10:13:12;9.52;;;3.42;;
65581;SDS011;52231;40.090;18.348;2023-04-24T10:15:42;11.20;;;3.70;;
65581;SDS011;52231;40.090;18.348;2023-04-24T10:18:11;11.05;;;3.72;;
65581;SDS011;52231;40.090;18.348;2023-04-24T10:20:39;12.45;;;4.10;;
65581;SDS011;52231;40.090;18.348;2023-04-24T10:23:08;12.07;;;3.90;;
65581;SDS011;52231;40.090;18.348;2023-04-24T10:25:38;9.35;;;3.50;;
65581;SDS011;52231;40.090;18.348;2023-04-24T10:28:07;9.50;;;3.38;;
65581;SDS011;52231;40.090;18.348;2023-04-24T10:30:38;12.02;;;3.85;;
65581;SDS011;52231;40.090;18.348;2023-04-24T10:33:10;9.88;;;3.53;;
65581;SDS011;52231;40.090;18.348;2023-04-24T10:35:41;8.18;;;2.83;;
65581;SDS011;52231;40.090;18.348;2023-04-24T10:38:18;11.55;;;3.90;;
65581;SDS011;52231;40.090;18.348;2023-04-24T10:40:57;13.00;;;4.03;;
65581;SDS011;52231;40.090;18.348;2023-04-24T10:43:36;7.97;;;2.88;;
65581;SDS011;52231;40.090;18.348;2023-04-24T10:46:08;12.95;;;4.03;;
65581;SDS011;52231;40.090;18.348;2023-04-24T10:48:41;11.98;;;3.50;;
65581;SDS011;52231;40.090;18.348;2023-04-24T10:51:14;12.48;;;4.03;;
65581;SDS011;52231;40.090;18.348;2023-04-24T10:53:42;12.80;;;3.60;;
65581;SDS011;52231;40.090;18.348;2023-04-24T10:58:42;11.25;;;3.90;;
65581;SDS011;52231;40.090;18.348;2023-04-24T11:01:25;10.23;;;3.60;;
65581;SDS011;52231;40.090;18.348;2023-04-24T11:04:01;14.90;;;4.03;;
65581;SDS011;52231;40.090;18.348;2023-04-24T11:06:36;11.57;;;3.70;;
65581;SDS011;52231;40.090;18.348;2023-04-24T11:09:09;12.00;;;3.65;;
65581;SDS011;52231;40.090;18.348;2023-04-24T11:11:47;10.40;;;3.78;;
65581;SDS011;52231;40.090;18.348;2023-04-24T11:14:16;13.70;;;3.60;;
65581;SDS011;52231;40.090;18.348;2023-04-24T11:16:55;11.75;;;3.58;;
65581;SDS011;52231;40.090;18.348;2023-04-24T11:19:24;9.70;;;3.83;;
65581;SDS011;52231;40.090;18.348;2023-04-24T11:22:03;12.48;;;3.78;;
65581;SDS011;52231;40.090;18.348;2023-04-24T11:27:29;11.45;;;3.90;;
65581;SDS011;52231;40.090;18.348;2023-04-24T11:30:05;13.23;;;4.18;;
65581;SDS011;52231;40.090;18.348;2023-04-24T11:32:37;10.45;;;3.72;;
65581;SDS011;52231;40.090;18.348;2023-04-24T11:37:49;14.52;;;4.10;;
65581;SDS011;52231;40.090;18.348;2023-04-24T11:40:30;13.77;;;4.32;;
65581;SDS011;52231;40.090;18.348;2023-04-24T11:43:01;10.45;;;3.65;;
65581;SDS011;52231;40.090;18.348;2023-04-24T11:45:34;13.27;;;3.85;;
65581;SDS011;52231;40.090;18.348;2023-04-24T11:48:08;10.90;;;4.72;;
65581;SDS011;52231;40.090;18.348;2023-04-24T11:50:36;12.88;;;3.47;;
65581;SDS011;52231;40.090;18.348;2023-04-24T11:53:04;16.63;;;5.18;;
65581;SDS011;52231;40.090;18.348;2023-04-24T11:55:33;18.65;;;4.55;;
65581;SDS011;52231;40.090;18.348;2023-04-24T11:58:02;18.27;;;5.20;;
65581;SDS011;52231;40.090;18.348;2023-04-24T12:00:31;16.90;;;4.60;;
65581;SDS011;52231;40.090;18.348;2023-04-24T12:03:10;15.70;;;4.70;;
65581;SDS011;52231;40.090;18.348;2023-04-24T12:05:39;21.02;;;5.05;;
65581;SDS011;52231;40.090;18.348;2023-04-24T12:08:08;16.77;;;4.65;;
65581;SDS011;52231;40.090;18.348;2023-04-24T12:13:05;14.18;;;4.35;;
65581;SDS011;52231;40.090;18.348;2023-04-24T12:15:33;16.92;;;4.43;;
65581;SDS011;52231;40.090;18.348;2023-04-24T12:18:03;14.90;;;4.38;;
65581;SDS011;52231;40.090;18.348;2023-04-24T12:20:32;14.77;;;4.00;;
65581;SDS011;52231;40.090;18.348;2023-04-24T12:23:00;12.63;;;4.57;;
65581;SDS011;52231;40.090;18.348;2023-04-24T12:25:30;14.90;;;4.25;;
65581;SDS011;52231;40.090;18.348;2023-04-24T12:30:38;16.08;;;5.35;;
65581;SDS011;52231;40.090;18.348;2023-04-24T12:33:18;16.15;;;5.05;;
65581;SDS011;52231;40.090;18.348;2023-04-24T12:35:48;14.82;;;4.90;;
65581;SDS011;52231;40.090;18.348;2023-04-24T12:38:24;17.52;;;4.47;;
65581;SDS011;52231;40.090;18.348;2023-04-24T12:41:02;16.25;;;4.80;;
65581;SDS011;52231;40.090;18.348;2023-04-24T12:43:40;17.55;;;4.03;;
65581;SDS011;52231;40.090;18.348;2023-04-24T12:46:19;14.02;;;4.82;;
65581;SDS011;52231;40.090;18.348;2023-04-24T12:48:48;17.58;;;5.00;;
65581;SDS011;52231;40.090;18.348;2023-04-24T12:51:17;19.35;;;5.18;;
65581;SDS011;52231;40.090;18.348;2023-04-24T12:53:45;13.57;;;4.95;;
65581;SDS011;52231;40.090;18.348;2023-04-24T12:58:41;14.65;;;4.65;;
65581;SDS011;52231;40.090;18.348;2023-04-24T13:01:12;15.05;;;4.45;;
65581;SDS011;52231;40.090;18.348;2023-04-24T13:03:41;14.73;;;4.80;;
65581;SDS011;52231;40.090;18.348;2023-04-24T13:06:09;15.05;;;4.38;;
65581;SDS011;52231;40.090;18.348;2023-04-24T13:08:38;15.68;;;4.15;;
65581;SDS011;52231;40.090;18.348;2023-04-24T13:13:34;17.75;;;5.07;;
65581;SDS011;52231;40.090;18.348;2023-04-24T13:16:03;13.32;;;4.35;;
65581;SDS011;52231;40.090;18.348;2023-04-24T13:18:31;15.57;;;4.00;;
65581;SDS011;52231;40.090;18.348;2023-04-24T13:21:00;14.10;;;3.83;;
65581;SDS011;52231;40.090;18.348;2023-04-24T13:23:28;12.23;;;3.80;;
65581;SDS011;52231;40.090;18.348;2023-04-24T13:25:56;10.30;;;3.47;;
65581;SDS011;52231;40.090;18.348;2023-04-24T13:28:25;9.55;;;3.53;;
65581;SDS011;52231;40.090;18.348;2023-04-24T13:30:53;13.00;;;3.30;;
65581;SDS011;52231;40.090;18.348;2023-04-24T13:33:22;10.23;;;3.33;;
65581;SDS011;52231;40.090;18.348;2023-04-24T13:35:51;11.93;;;3.63;;
65581;SDS011;52231;40.090;18.348;2023-04-24T13:40:48;11.50;;;3.78;;
65581;SDS011;52231;40.090;18.348;2023-04-24T13:43:19;15.50;;;3.95;;
65581;SDS011;52231;40.090;18.348;2023-04-24T13:45:47;16.05;;;3.90;;
65581;SDS011;52231;40.090;18.348;2023-04-24T13:48:15;13.40;;;4.30;;
65581;SDS011;52231;40.090;18.348;2023-04-24T13:50:44;10.65;;;3.45;;
65581;SDS011;52231;40.090;18.348;2023-04-24T13:53:12;14.40;;;3.80;;
65581;SDS011;52231;40.090;18.348;2023-04-24T13:55:40;9.60;;;2.97;;
65581;SDS011;52231;40.090;18.348;2023-04-24T13:58:08;11.68;;;3.47;;
65581;SDS011;52231;40.090;18.348;2023-04-24T14:00:38;13.40;;;4.15;;
65581;SDS011;52231;40.090;18.348;2023-04-24T14:03:06;11.77;;;3.80;;
65581;SDS011;52231;40.090;18.348;2023-04-24T14:05:35;8.38;;;3.03;;
65581;SDS011;52231;40.090;18.348;2023-04-24T14:08:04;8.45;;;3.10;;
65581;SDS011;52231;40.090;18.348;2023-04-24T14:10:33;11.32;;;3.33;;
65581;SDS011;52231;40.090;18.348;2023-04-24T14:13:03;10.70;;;3.80;;
65581;SDS011;52231;40.090;18.348;2023-04-24T14:15:31;19.92;;;4.22;;
65581;SDS011;52231;40.090;18.348;2023-04-24T14:17:59;14.63;;;3.50;;
65581;SDS011;52231;40.090;18.348;2023-04-24T14:20:28;12.82;;;4.32;;
65581;SDS011;52231;40.090;18.348;2023-04-24T14:22:56;15.23;;;3.58;;
65581;SDS011;52231;40.090;18.348;2023-04-24T14:25:27;13.32;;;3.80;;
65581;SDS011;52231;40.090;18.348;2023-04-24T14:27:56;15.20;;;4.35;;
65581;SDS011;52231;40.090;18.348;2023-04-24T14:30:24;13.30;;;4.00;;
65581;SDS011;52231;40.090;18.348;2023-04-24T14:32:53;13.95;;;3.92;;
65581;SDS011;52231;40.090;18.348;2023-04-24T14:35:21;15.38;;;4.10;;
65581;SDS011;52231;40.090;18.348;2023-04-24T14:37:49;12.13;;;3.95;;
65581;SDS011;52231;40.090;18.348;2023-04-24T14:40:18;13.10;;;3.90;;
65581;SDS011;52231;40.090;18.348;2023-04-24T14:43:03;12.85;;;4.35;;
65581;SDS011;52231;40.090;18.348;2023-04-24T14:45:31;14.05;;;4.53;;
65581;SDS011;52231;40.090;18.348;2023-04-24T14:48:00;10.40;;;3.42;;
65581;SDS011;52231;40.090;18.348;2023-04-24T14:52:56;11.40;;;3.47;;
65581;SDS011;52231;40.090;18.348;2023-04-24T14:55:25;9.35;;;3.22;;
65581;SDS011;52231;40.090;18.348;2023-04-24T14:57:53;12.32;;;3.20;;
65581;SDS011;52231;40.090;18.348;2023-04-24T15:00:22;12.00;;;4.28;;
65581;SDS011;52231;40.090;18.348;2023-04-24T15:02:53;10.48;;;3.35;;
65581;SDS011;52231;40.090;18.348;2023-04-24T15:05:22;11.23;;;3.28;;
65581;SDS011;52231;40.090;18.348;2023-04-24T15:07:52;14.18;;;3.45;;
65581;SDS011;52231;40.090;18.348;2023-04-24T15:10:20;13.75;;;4.80;;
65581;SDS011;52231;40.090;18.348;2023-04-24T15:12:50;13.15;;;5.60;;
65581;SDS011;52231;40.090;18.348;2023-04-24T15:15:19;12.75;;;4.70;;
65581;SDS011;52231;40.090;18.348;2023-04-24T15:17:47;15.75;;;4.60;;
65581;SDS011;52231;40.090;18.348;2023-04-24T15:22:45;19.55;;;4.35;;
65581;SDS011;52231;40.090;18.348;2023-04-24T15:27:41;11.75;;;4.00;;
65581;SDS011;52231;40.090;18.348;2023-04-24T15:30:11;13.50;;;4.50;;
65581;SDS011;52231;40.090;18.348;2023-04-24T15:32:40;16.20;;;4.65;;
65581;SDS011;52231;40.090;18.348;2023-04-24T15:35:08;15.60;;;3.67;;
65581;SDS011;52231;40.090;18.348;2023-04-24T15:37:37;15.15;;;4.30;;
65581;SDS011;52231;40.090;18.348;2023-04-24T15:40:06;21.52;;;6.00;;
65581;SDS011;52231;40.090;18.348;2023-04-24T15:42:35;15.05;;;5.50;;
65581;SDS011;52231;40.090;18.348;2023-04-24T15:45:03;19.30;;;6.32;;
65581;SDS011;52231;40.090;18.348;2023-04-24T15:47:31;19.35;;;6.88;;
65581;SDS011;52231;40.090;18.348;2023-04-24T15:50:00;16.10;;;6.38;;
65581;SDS011;52231;40.090;18.348;2023-04-24T15:52:28;21.60;;;8.05;;